Hovedside
METAR-TAF:

METAR-TAF

Lufthavner :

Antsiranana, Madagaskar

breddegrad: 12-21S, lengdegrad: 049-18E, høyde over havet: 114 m

Gjeldene værobservasjon

Denne rapporten ble laget for 5 timer og 51 minutter siden, klokken 15:00 UTC
Vind 6 kt fra Sørøst
Temperatur 28°C
Luftfuktighet 84%
Trykk 1008 hPa
Sikt 10 km eller mer
Få skyer i en høyde av 2000 ft, Bygeskyer.

METAR: FMNA 121500Z 14006KT 9999 FEW020CB 28/25 Q1008

Tid: 23:51 (20:51 UTC)


TAF: fraværende

Værobservasjoner og værvarsel for over 4000 flyplasser (METAR- og TAF-rapporter).

Tilgjengelige stasjoner er representert av de røde og gule prikkene på kartet.

Hold musepekeren over prikken for å se navnet på stasjonen.

Klikk så for å se værobservasjoner og -varsler.

For å forandre kartet kan du klikke på den grønne knappen med svart kryss for å zoome inn, på den grønne knappen med strek for å zoome ut, eller på de grønne pilene for å se tilstøtende kart.


METAR-TAF: